Time;durP1;ratioP1;P1;durP2;ratioP2;P2;SDS_P1;SDS_P2;PMS_P1;PMS_P2;Temp;Humidity;BMP_temperature;BMP_pressure;BME280_temperature;BME280_humidity;BME280_pressure;Samples;Min_cycle;Max_cycle;Signal;HPM_P1;HPM_P2
2022/12/23 00:00:27;;;;;;;16.13;13.30;;;;;21.40;99220.00;;;;2071471;28;20214;-52
2022/12/23 00:01:28;;;;;;;15.23;13.57;;;;;21.40;99224.00;;;;2071331;28;20221;-51
2022/12/23 00:02:28;;;;;;;15.80;14.10;;;;;21.40;99223.00;;;;2070750;28;20256;-50
2022/12/23 00:03:29;;;;;;;13.90;12.40;;;;;21.40;99227.00;;;;2071524;28;20217;-50
2022/12/23 00:04:29;;;;;;;14.80;12.30;;;;;21.40;99228.00;;;;2071317;28;20214;-50
2022/12/23 00:05:29;;;;;;;15.50;12.73;;;;;21.40;99220.00;;;;2071325;28;20218;-51
2022/12/23 00:06:30;;;;;;;16.40;12.93;;;;;21.40;99221.00;;;;2071524;28;20709;-51
2022/12/23 00:07:30;;;;;;;16.20;13.83;;;;;21.40;99226.00;;;;2071031;28;20686;-50
2022/12/23 00:08:31;;;;;;;14.37;11.60;;;;;21.40;99223.00;;;;2062637;28;20658;-52
2022/12/23 00:09:31;;;;;;;13.93;11.83;;;;;21.30;99217.00;;;;2062378;28;20211;-52
2022/12/23 00:10:31;;;;;;;17.17;13.33;;;;;21.40;99218.00;;;;2071391;28;20214;-52
2022/12/23 00:11:32;;;;;;;15.00;11.87;;;;;21.40;99214.00;;;;2068295;28;20210;-52
2022/12/23 00:15:10;;;;;;;15.25;11.95;;;;;21.30;99207.00;;;;2062875;28;20620;-51
2022/12/23 00:16:12;;;;;;;12.97;10.27;;;;;21.40;99213.00;;;;2063087;28;20218;-50
2022/12/23 00:17:12;;;;;;;13.02;11.02;;;;;21.40;99211.00;;;;2063312;28;20218;-49
2022/12/23 00:18:13;;;;;;;13.67;11.33;;;;;21.40;99207.00;;;;2063293;28;20214;-50
2022/12/23 00:19:13;;;;;;;12.77;11.10;;;;;21.40;99207.00;;;;2054432;28;20230;-52
2022/12/23 00:20:14;;;;;;;13.80;10.83;;;;;21.30;99206.00;;;;2054710;28;20558;-51
2022/12/23 00:21:15;;;;;;;13.23;10.23;;;;;21.30;99206.00;;;;2062853;28;20254;-50
2022/12/23 00:22:15;;;;;;;12.98;11.32;;;;;21.30;99208.00;;;;2062458;28;20217;-50
2022/12/23 00:23:16;;;;;;;13.40;10.63;;;;;21.30;99203.00;;;;2063029;28;20218;-53
2022/12/23 00:24:16;;;;;;;15.83;11.23;;;;;21.30;99202.00;;;;2062824;28;20349;-51
2022/12/23 00:25:16;;;;;;;12.70;9.60;;;;;21.30;99210.00;;;;2063273;28;20207;-50
2022/12/23 00:26:24;;;;;;;13.97;10.10;;;;;21.30;99214.00;;;;2065622;28;20701;-49
2022/12/23 00:27:24;;;;;;;12.07;10.52;;;;;21.30;99215.00;;;;2067326;28;20211;-53
2022/12/23 00:28:25;;;;;;;10.73;9.43;;;;;21.30;99202.00;;;;2063003;28;20215;-51
2022/12/23 00:29:25;;;;;;;10.40;9.30;;;;;21.30;99213.00;;;;2063048;28;20651;-50
2022/12/23 00:30:26;;;;;;;11.80;9.50;;;;;21.40;99209.00;;;;2063053;28;20211;-51
2022/12/23 00:31:27;;;;;;;13.02;10.25;;;;;21.30;99219.00;;;;2063248;28;20211;-52
2022/12/23 00:32:27;;;;;;;11.20;8.80;;;;;21.30;99214.00;;;;2062105;28;20297;-49
2022/12/23 00:33:29;;;;;;;9.60;8.60;;;;;21.30;99213.00;;;;2063010;28;20211;-52
2022/12/23 00:34:29;;;;;;;11.95;9.02;;;;;21.30;99211.00;;;;2054437;28;20204;-49
2022/12/23 00:35:30;;;;;;;10.97;9.43;;;;;21.30;99219.00;;;;2054495;28;20243;-51
2022/12/23 00:36:31;;;;;;;11.57;9.32;;;;;21.30;99216.00;;;;2053646;28;20266;-51
2022/12/23 00:37:31;;;;;;;11.47;9.13;;;;;21.30;99219.00;;;;2054671;28;20263;-51
2022/12/23 00:43:48;;;;;;;12.38;8.90;;;;;21.30;99210.00;;;;2070179;28;20217;-52
2022/12/23 00:44:49;;;;;;;9.33;8.33;;;;;21.30;99213.00;;;;2070573;28;20218;-52
2022/12/23 00:45:49;;;;;;;10.63;8.53;;;;;21.30;99212.00;;;;2071080;28;20210;-52
2022/12/23 00:46:49;;;;;;;11.80;8.80;;;;;21.30;99213.00;;;;2071151;28;20264;-52
2022/12/23 00:50:30;;;;;;;8.82;7.25;;;;;21.20;99218.00;;;;2069440;28;20206;-52
2022/12/23 00:51:30;;;;;;;9.50;8.30;;;;;21.20;99213.00;;;;2071135;28;20289;-51
2022/12/23 00:52:30;;;;;;;9.13;7.27;;;;;21.20;99220.00;;;;2070360;28;20312;-52
2022/12/23 00:53:31;;;;;;;8.77;6.63;;;;;21.30;99211.00;;;;2070958;28;20214;-52
2022/12/23 00:54:31;;;;;;;8.70;7.50;;;;;21.30;99208.00;;;;2070569;28;20558;-54
2022/12/23 00:55:31;;;;;;;10.13;7.60;;;;;21.20;99219.00;;;;2068849;28;20703;-54
2022/12/23 00:56:32;;;;;;;10.67;7.53;;;;;21.20;99219.00;;;;2062772;28;20226;-52
2022/12/23 00:57:32;;;;;;;8.13;7.33;;;;;21.10;99217.00;;;;2062871;28;20219;-53
2022/12/23 00:58:32;;;;;;;9.70;7.30;;;;;21.20;99226.00;;;;2054286;28;20341;-52
2022/12/23 00:59:33;;;;;;;8.70;7.10;;;;;21.20;99221.00;;;;2054493;28;20285;-51
2022/12/23 01:05:50;;;;;;;9.05;7.30;;;;;21.20;99227.00;;;;2070892;28;20214;-54
2022/12/23 01:06:50;;;;;;;8.60;6.57;;;;;21.10;99225.00;;;;2070684;28;20213;-54
2022/12/23 01:07:51;;;;;;;9.50;6.67;;;;;21.20;99231.00;;;;2070627;28;20221;-54
2022/12/23 01:08:52;;;;;;;8.95;6.65;;;;;21.20;99221.00;;;;2061800;28;20688;-53
2022/12/23 01:09:52;;;;;;;7.77;6.10;;;;;21.20;99225.00;;;;2062293;28;20226;-53
2022/12/23 01:10:52;;;;;;;7.63;5.53;;;;;21.20;99225.00;;;;2070701;28;20202;-53
2022/12/23 01:11:53;;;;;;;9.27;6.40;;;;;21.20;99238.00;;;;2070284;28;20210;-53
2022/12/23 01:12:53;;;;;;;7.00;6.10;;;;;21.20;99227.00;;;;2070848;28;20209;-54
2022/12/23 01:13:53;;;;;;;8.53;6.10;;;;;21.10;99229.00;;;;2070920;28;20209;-53
2022/12/23 01:14:54;;;;;;;9.20;6.37;;;;;21.10;99239.00;;;;2070978;28;20210;-51
2022/12/23 01:16:05;;;;;;;7.87;5.73;;;;;21.10;99233.00;;;;2069421;28;20210;-52
2022/12/23 01:17:05;;;;;;;8.38;6.10;;;;;21.10;99229.00;;;;2070784;28;20522;-54
2022/12/23 01:18:05;;;;;;;8.60;6.53;;;;;21.10;99234.00;;;;2070997;28;20206;-52
2022/12/23 01:19:06;;;;;;;7.20;5.80;;;;;21.10;99243.00;;;;2071156;28;20808;-52
2022/12/23 01:20:07;;;;;;;8.57;5.90;;;;;21.10;99238.00;;;;2070856;28;20718;-51
2022/12/23 01:21:08;;;;;;;6.57;5.70;;;;;21.10;99245.00;;;;2070674;28;20288;-53
2022/12/23 01:22:09;;;;;;;8.15;5.50;;;;;21.10;99245.00;;;;2069919;28;20488;-52
2022/12/23 01:23:09;;;;;;;9.13;5.80;;;;;21.10;99240.00;;;;2070913;28;20221;-52
2022/12/23 01:24:09;;;;;;;6.40;5.33;;;;;21.10;99246.00;;;;2070829;28;20210;-52
2022/12/23 01:25:10;;;;;;;6.60;5.10;;;;;21.10;99247.00;;;;2062031;28;20207;-53
2022/12/23 01:26:10;;;;;;;6.47;4.80;;;;;21.10;99240.00;;;;2062298;28;20215;-54
2022/12/23 01:27:10;;;;;;;6.87;5.30;;;;;21.10;99239.00;;;;2070941;28;20684;-53
2022/12/23 01:28:11;;;;;;;6.10;4.47;;;;;21.10;99238.00;;;;2070585;28;20214;-54
2022/12/23 01:29:11;;;;;;;7.90;5.03;;;;;21.10;99251.00;;;;2069200;28;20317;-53
2022/12/23 01:30:11;;;;;;;7.00;5.33;;;;;21.10;99248.00;;;;2062918;28;20218;-54
2022/12/23 01:31:12;;;;;;;7.13;4.83;;;;;21.10;99249.00;;;;2062551;28;20766;-53
2022/12/23 01:32:12;;;;;;;7.90;5.13;;;;;21.10;99241.00;;;;2061610;28;20215;-53
2022/12/23 01:33:13;;;;;;;6.83;5.43;;;;;21.10;99247.00;;;;2062686;28;20218;-54
2022/12/23 01:34:13;;;;;;;5.20;4.60;;;;;21.10;99240.00;;;;2062623;28;20217;-53
2022/12/23 01:35:13;;;;;;;8.50;4.87;;;;;21.10;99261.00;;;;2056287;28;20274;-51
2022/12/23 01:36:14;;;;;;;7.53;4.97;;;;;21.10;99257.00;;;;2062187;28;20226;-53
2022/12/23 01:37:14;;;;;;;6.50;4.77;;;;;21.10;99258.00;;;;2070376;28;20209;-53
2022/12/23 01:38:14;;;;;;;5.77;4.77;;;;;21.10;99257.00;;;;2070484;28;20702;-53
2022/12/23 01:39:15;;;;;;;7.10;5.07;;;;;21.10;99253.00;;;;2070594;28;20724;-52
2022/12/23 01:40:15;;;;;;;7.20;4.90;;;;;21.10;99260.00;;;;2070753;28;20296;-52
2022/12/23 01:42:43;;;;;;;7.93;5.07;;;;;21.10;99259.00;;;;2068830;28;20253;-51
2022/12/23 01:43:46;;;;;;;5.57;4.65;;;;;21.10;99272.00;;;;2070459;28;20364;-52
2022/12/23 01:44:58;;;;;;;5.95;4.72;;;;;21.00;99271.00;;;;2070642;28;20306;-54
2022/12/23 01:45:58;;;;;;;6.00;4.85;;;;;21.00;99265.00;;;;2070576;28;20758;-54
2022/12/23 01:46:59;;;;;;;5.93;4.30;;;;;21.00;99267.00;;;;2070329;28;20230;-51
2022/12/23 01:48:03;;;;;;;6.27;5.60;;;;;21.00;99267.00;;;;2061093;28;20246;-51
2022/12/23 01:49:03;;;;;;;7.75;5.13;;;;;21.00;99268.00;;;;2059006;28;20241;-53
2022/12/23 01:50:04;;;;;;;6.27;4.93;;;;;21.00;99266.00;;;;2070455;28;20318;-51
2022/12/23 01:51:06;;;;;;;6.47;4.27;;;;;21.00;99264.00;;;;2070149;28;20232;-52
2022/12/23 01:52:07;;;;;;;5.60;4.35;;;;;21.00;99273.00;;;;2060761;28;20218;-53
2022/12/23 01:53:12;;;;;;;5.90;4.33;;;;;21.00;99269.00;;;;2061384;28;20317;-52
2022/12/23 01:54:12;;;;;;;5.10;4.30;;;;;21.00;99277.00;;;;2061406;28;20227;-52
2022/12/23 01:55:13;;;;;;;7.73;4.57;;;;;21.00;99269.00;;;;2060293;28;20257;-52
2022/12/23 01:56:25;;;;;;;4.63;3.93;;;;;21.00;99272.00;;;;2053850;28;20228;-52
2022/12/23 01:57:26;;;;;;;5.97;4.32;;;;;20.90;99266.00;;;;2054695;28;20447;-52
2022/12/23 01:58:36;;;;;;;5.80;4.10;;;;;21.00;99261.00;;;;2053958;28;20241;-51
2022/12/23 02:03:42;;;;;;;6.07;4.50;;;;;21.00;99268.00;;;;2065259;28;20682;-52
2022/12/23 02:04:43;;;;;;;7.50;5.13;;;;;21.00;99272.00;;;;2062255;28;20293;-53
2022/12/23 02:05:46;;;;;;;6.63;4.60;;;;;21.00;99281.00;;;;2061953;28;20222;-52
2022/12/23 02:09:48;;;;;;;5.07;3.85;;;;;20.90;99276.00;;;;2037716;28;20229;-53
2022/12/23 02:11:19;;;;;;;5.10;3.83;;;;;20.90;99271.00;;;;2036980;29;20225;-52
2022/12/23 02:12:30;;;;;;;5.45;3.88;;;;;20.90;99280.00;;;;2044030;28;20677;-52
2022/12/23 02:17:30;;;;;;;4.35;3.72;;;;;20.90;99272.00;;;;2053141;28;20313;-53
2022/12/23 02:18:47;;;;;;;5.78;3.80;;;;;20.90;99281.00;;;;2053070;28;20216;-54
2022/12/23 02:19:57;;;;;;;5.30;4.03;;;;;20.90;99287.00;;;;2046303;28;20216;-53
2022/12/23 02:21:10;;;;;;;4.75;4.18;;;;;20.90;99280.00;;;;2028735;28;20563;-53
2022/12/23 02:22:37;;;;;;;4.40;3.47;;;;;20.90;99286.00;;;;2048408;28;20327;-54
2022/12/23 02:24:02;;;;;;;4.60;3.90;;;;;20.90;99288.00;;;;2054248;28;20210;-51
2022/12/23 02:25:11;;;;;;;4.97;3.67;;;;;20.90;99286.00;;;;2058397;28;20743;-53
2022/12/23 02:26:20;;;;;;;5.45;3.72;;;;;20.90;99281.00;;;;2054554;28;20215;-53
2022/12/23 02:27:31;;;;;;;5.05;3.50;;;;;20.90;99285.00;;;;2062886;28;20313;-53
2022/12/23 02:28:55;;;;;;;4.18;3.60;;;;;20.90;99278.00;;;;2061360;28;20274;-52
2022/12/23 02:30:04;;;;;;;6.07;3.97;;;;;20.90;99291.00;;;;2065108;28;20245;-52
2022/12/23 02:31:20;;;;;;;4.47;3.80;;;;;20.90;99286.00;;;;2061155;28;20634;-54
2022/12/23 02:32:55;;;;;;;5.40;4.22;;;;;20.90;99291.00;;;;2054492;28;20222;-53
2022/12/23 02:34:01;;;;;;;7.35;4.00;;;;;20.90;99292.00;;;;2066167;28;20210;-53
2022/12/23 02:35:14;;;;;;;5.75;3.80;;;;;20.90;99294.00;;;;2069917;28;20218;-54
2022/12/23 02:36:19;;;;;;;5.35;4.15;;;;;20.90;99291.00;;;;2061662;28;20333;-53
2022/12/23 02:37:34;;;;;;;6.13;4.07;;;;;20.90;99291.00;;;;2061802;28;20243;-52
2022/12/23 02:38:52;;;;;;;4.35;3.55;;;;;20.90;99296.00;;;;2063401;28;20226;-52
2022/12/23 02:39:58;;;;;;;4.60;3.50;;;;;20.90;99298.00;;;;2070489;28;20226;-52
2022/12/23 02:41:27;;;;;;;5.13;3.40;;;;;20.90;99295.00;;;;2061184;28;20214;-51
2022/12/23 02:42:30;;;;;;;5.35;4.03;;;;;20.80;99256.00;;;;2048361;28;20246;-52
2022/12/23 02:43:46;;;;;;;5.53;3.72;;;;;20.80;99300.00;;;;2047182;28;20255;-52
2022/12/23 02:44:50;;;;;;;4.50;3.60;;;;;20.90;99313.00;;;;2055672;28;20251;-52
2022/12/23 02:45:57;;;;;;;5.63;3.70;;;;;20.90;99311.00;;;;2062288;28;20237;-53
2022/12/23 02:47:04;;;;;;;5.07;3.80;;;;;20.90;99314.00;;;;2061546;28;20218;-53
2022/12/23 02:48:11;;;;;;;4.68;3.88;;;;;20.90;99313.00;;;;2053667;28;20219;-52
2022/12/23 02:49:22;;;;;;;4.40;3.38;;;;;20.90;99307.00;;;;2054432;28;20788;-54
2022/12/23 02:50:24;;;;;;;5.05;3.47;;;;;20.90;99316.00;;;;2054975;28;20688;-54
2022/12/23 02:51:27;;;;;;;5.60;3.60;;;;;20.80;99320.00;;;;2049912;28;20216;-54
2022/12/23 02:52:29;;;;;;;3.55;2.95;;;;;20.80;99319.00;;;;2041838;28;20270;-53
2022/12/23 02:53:33;;;;;;;4.47;3.55;;;;;20.90;99320.00;;;;2046313;28;20709;-52
2022/12/23 02:54:37;;;;;;;6.45;4.40;;;;;20.80;99326.00;;;;2045154;28;20263;-53
2022/12/23 02:55:37;;;;;;;4.70;3.25;;;;;20.80;99323.00;;;;2041632;28;20232;-53
2022/12/23 02:56:38;;;;;;;5.20;3.60;;;;;20.80;99323.00;;;;2045493;28;20216;-54
2022/12/23 02:57:40;;;;;;;4.10;3.38;;;;;20.90;99318.00;;;;2029181;29;20250;-53
2022/12/23 02:58:43;;;;;;;4.88;3.70;;;;;20.80;99326.00;;;;2038501;28;21088;-53
2022/12/23 02:59:45;;;;;;;5.68;3.75;;;;;20.90;99315.00;;;;2038965;29;20232;-54
2022/12/23 03:00:46;;;;;;;4.53;3.65;;;;;20.90;99323.00;;;;2053233;28;20224;-52
2022/12/23 03:01:46;;;;;;;4.80;3.20;;;;;20.80;99330.00;;;;2054746;28;20600;-53
2022/12/23 03:02:46;;;;;;;4.77;3.87;;;;;20.80;99328.00;;;;2053930;28;20563;-53
2022/12/23 03:03:47;;;;;;;5.00;3.23;;;;;20.80;99322.00;;;;2062852;28;20211;-53
2022/12/23 03:04:47;;;;;;;5.90;3.70;;;;;20.80;99330.00;;;;2054984;28;20212;-53
2022/12/23 03:05:47;;;;;;;4.87;3.67;;;;;20.80;99329.00;;;;2054922;28;20268;-53
2022/12/23 03:06:50;;;;;;;5.20;3.30;;;;;20.80;99324.00;;;;2063425;28;20714;-53
2022/12/23 03:07:51;;;;;;;5.93;3.42;;;;;20.80;99335.00;;;;2054665;28;20993;-52
2022/12/23 03:08:53;;;;;;;3.45;3.15;;;;;20.80;99332.00;;;;2055049;28;20291;-51
2022/12/23 03:10:00;;;;;;;3.97;3.28;;;;;20.80;99326.00;;;;2063020;28;20219;-53
2022/12/23 03:11:11;;;;;;;4.43;3.40;;;;;20.80;99330.00;;;;2054866;28;20219;-52
2022/12/23 03:12:31;;;;;;;5.30;3.42;;;;;20.80;99336.00;;;;2057134;28;20216;-54
2022/12/23 03:13:36;;;;;;;6.25;3.63;;;;;20.80;99329.00;;;;2062811;28;20701;-54
2022/12/23 03:14:42;;;;;;;4.68;3.50;;;;;20.80;99337.00;;;;2055339;28;20227;-53
2022/12/23 03:16:11;;;;;;;4.00;3.47;;;;;20.80;99335.00;;;;2055552;28;20216;-53
2022/12/23 03:17:17;;;;;;;3.83;3.45;;;;;20.80;99337.00;;;;2054556;28;20212;-54
2022/12/23 03:18:38;;;;;;;4.00;3.45;;;;;20.80;99339.00;;;;2055292;28;20215;-54
2022/12/23 03:19:44;;;;;;;5.78;3.25;;;;;20.80;99335.00;;;;2060765;28;20317;-53
2022/12/23 03:21:11;;;;;;;3.50;2.60;;;;;20.80;99341.00;;;;2063372;28;20219;-53
2022/12/23 03:22:31;;;;;;;3.88;3.00;;;;;20.80;99344.00;;;;2061939;28;20230;-54
2022/12/23 03:23:36;;;;;;;5.25;3.65;;;;;20.70;99351.00;;;;2062899;28;20218;-54
2022/12/23 03:24:42;;;;;;;3.83;3.20;;;;;20.80;99356.00;;;;2055014;28;20727;-54
2022/12/23 03:26:00;;;;;;;3.88;3.13;;;;;20.70;99357.00;;;;2061872;28;20223;-54
2022/12/23 03:27:05;;;;;;;5.35;3.15;;;;;20.70;99363.00;;;;2063500;28;20623;-53
2022/12/23 03:28:26;;;;;;;3.65;2.60;;;;;20.70;99354.00;;;;2054898;28;20303;-52
2022/12/23 03:29:52;;;;;;;3.95;3.33;;;;;20.80;99366.00;;;;2054724;28;20227;-53
2022/12/23 03:30:53;;;;;;;3.90;3.50;;;;;20.80;99366.00;;;;2047923;28;20229;-53
2022/12/23 03:31:54;;;;;;;3.90;3.20;;;;;20.80;99365.00;;;;2061795;28;20225;-52
2022/12/23 03:33:07;;;;;;;4.00;3.03;;;;;20.70;99370.00;;;;2054588;28;20219;-51
2022/12/23 03:34:15;;;;;;;3.83;2.90;;;;;20.70;99377.00;;;;2055985;28;20310;-52
2022/12/23 03:35:16;;;;;;;4.57;3.90;;;;;20.70;99374.00;;;;2053925;28;20207;-53
2022/12/23 03:36:40;;;;;;;5.30;3.40;;;;;20.70;99369.00;;;;2047256;28;20657;-53
2022/12/23 03:37:43;;;;;;;3.72;3.20;;;;;20.70;99369.00;;;;2055439;28;20232;-54
2022/12/23 03:38:43;;;;;;;3.50;2.92;;;;;20.70;99364.00;;;;2054632;28;20219;-53
2022/12/23 03:39:48;;;;;;;3.90;3.53;;;;;20.70;99371.00;;;;2038641;29;20217;-54
2022/12/23 03:41:00;;;;;;;4.32;3.40;;;;;20.80;99367.00;;;;2052722;28;20685;-54
2022/12/23 03:42:04;;;;;;;3.50;3.20;;;;;20.70;99362.00;;;;2055177;28;20234;-53
2022/12/23 03:43:08;;;;;;;4.32;3.60;;;;;20.70;99368.00;;;;2055255;28;20365;-53
2022/12/23 03:44:12;;;;;;;5.80;3.40;;;;;20.70;99360.00;;;;2054694;28;20211;-53
2022/12/23 03:45:15;;;;;;;3.65;3.35;;;;;20.80;99356.00;;;;2039584;28;21096;-53
2022/12/23 03:46:18;;;;;;;5.93;3.33;;;;;20.70;99356.00;;;;2047114;28;20625;-53
2022/12/23 03:47:25;;;;;;;3.97;3.17;;;;;20.80;99327.00;;;;2053968;28;20207;-52
2022/12/23 03:48:29;;;;;;;4.78;3.60;;;;;20.80;99363.00;;;;2054675;28;20649;-53
2022/12/23 03:49:52;;;;;;;4.72;3.30;;;;;20.70;99366.00;;;;2046703;28;20302;-53
2022/12/23 03:50:55;;;;;;;4.82;3.88;;;;;20.70;99363.00;;;;2052466;28;20954;-53
2022/12/23 03:51:59;;;;;;;4.85;3.50;;;;;20.70;99367.00;;;;2052681;28;20667;-54
2022/12/23 03:53:03;;;;;;;4.60;3.60;;;;;20.70;99359.00;;;;2047241;28;20671;-54
2022/12/23 03:54:07;;;;;;;4.70;3.47;;;;;20.70;99360.00;;;;2046920;28;20224;-53
2022/12/23 03:55:11;;;;;;;3.28;2.97;;;;;20.70;99364.00;;;;2048489;28;20212;-53
2022/12/23 03:56:17;;;;;;;4.40;3.42;;;;;20.70;99353.00;;;;2033635;28;20275;-54
2022/12/23 03:57:19;;;;;;;4.35;3.20;;;;;20.70;99357.00;;;;2043626;28;20378;-54
2022/12/23 03:58:38;;;;;;;4.18;3.78;;;;;20.70;99363.00;;;;2051604;28;20254;-52
2022/12/23 03:59:41;;;;;;;4.57;3.83;;;;;20.70;99363.00;;;;2065238;28;20223;-53
2022/12/23 04:00:49;;;;;;;4.00;3.58;;;;;20.70;99357.00;;;;2067257;28;20670;-53
2022/12/23 04:02:18;;;;;;;4.30;3.47;;;;;20.70;99352.00;;;;2058573;28;20219;-54
2022/12/23 04:03:21;;;;;;;4.30;3.70;;;;;20.70;99365.00;;;;2058428;28;20207;-53
2022/12/23 04:04:29;;;;;;;3.47;3.15;;;;;20.70;99358.00;;;;2054503;28;20222;-53
2022/12/23 04:05:32;;;;;;;3.92;3.50;;;;;20.70;99359.00;;;;2042862;28;20213;-52
2022/12/23 04:06:38;;;;;;;4.82;3.63;;;;;20.70;99360.00;;;;2046901;28;20328;-54
2022/12/23 04:08:08;;;;;;;4.50;3.90;;;;;20.70;99364.00;;;;2044243;28;20298;-53
2022/12/23 04:09:09;;;;;;;3.55;3.22;;;;;20.70;99359.00;;;;2061680;28;20750;-54
2022/12/23 04:10:09;;;;;;;5.23;3.83;;;;;20.70;99364.00;;;;2059546;28;20224;-52
2022/12/23 04:11:09;;;;;;;4.90;3.60;;;;;20.70;99354.00;;;;2043479;28;20266;-52
2022/12/23 04:12:09;;;;;;;5.67;3.63;;;;;20.70;99360.00;;;;2050566;28;20315;-53
2022/12/23 04:13:10;;;;;;;4.60;3.53;;;;;20.60;99364.00;;;;2054515;28;20223;-52
2022/12/23 04:14:16;;;;;;;4.33;3.93;;;;;20.60;99359.00;;;;2054433;28;20223;-54
2022/12/23 04:15:20;;;;;;;4.50;3.95;;;;;20.70;99364.00;;;;2039146;29;20748;-53
2022/12/23 04:16:20;;;;;;;3.85;3.25;;;;;20.60;99362.00;;;;2053307;28;21132;-52
2022/12/23 04:17:21;;;;;;;3.77;3.40;;;;;20.70;99375.00;;;;2062621;28;20265;-54
2022/12/23 04:18:21;;;;;;;5.03;3.73;;;;;20.70;99362.00;;;;2062507;28;20238;-53
2022/12/23 04:19:21;;;;;;;4.60;3.80;;;;;20.60;99374.00;;;;2071281;28;20233;-53
2022/12/23 04:20:22;;;;;;;3.97;3.40;;;;;20.60;99368.00;;;;2069640;28;20214;-52
2022/12/23 04:21:22;;;;;;;3.93;3.53;;;;;20.70;99373.00;;;;2070948;28;20982;-53
2022/12/23 04:22:22;;;;;;;4.40;3.50;;;;;20.70;99366.00;;;;2070324;28;20259;-53
2022/12/23 04:23:23;;;;;;;3.83;3.33;;;;;20.70;99377.00;;;;2071389;28;20210;-54
2022/12/23 04:24:23;;;;;;;4.30;3.60;;;;;20.70;99372.00;;;;2062344;28;20244;-53
2022/12/23 04:25:23;;;;;;;5.63;3.30;;;;;20.60;99370.00;;;;2062524;28;20262;-52
2022/12/23 04:26:24;;;;;;;4.40;3.37;;;;;20.60;99381.00;;;;2070829;28;20714;-53
2022/12/23 04:27:24;;;;;;;4.30;3.17;;;;;20.60;99381.00;;;;2071142;28;20626;-52
2022/12/23 04:28:24;;;;;;;4.70;3.30;;;;;20.60;99374.00;;;;2071390;28;20210;-53
2022/12/23 04:29:25;;;;;;;4.13;3.27;;;;;20.60;99366.00;;;;2071287;28;20254;-51
2022/12/23 04:30:25;;;;;;;4.30;3.30;;;;;20.60;99369.00;;;;2070898;28;20234;-53
2022/12/23 04:31:25;;;;;;;4.13;3.47;;;;;20.60;99379.00;;;;2071381;28;20214;-54
2022/12/23 04:32:26;;;;;;;4.73;3.47;;;;;20.60;99371.00;;;;2070341;28;20279;-53
2022/12/23 04:33:26;;;;;;;3.30;2.90;;;;;20.60;99366.00;;;;2062602;28;20219;-54
2022/12/23 04:34:26;;;;;;;4.00;3.23;;;;;20.60;99366.00;;;;2061981;28;20222;-52
2022/12/23 04:35:27;;;;;;;3.93;3.53;;;;;20.60;99369.00;;;;2071087;28;20222;-53
2022/12/23 04:36:27;;;;;;;3.60;3.30;;;;;20.60;99369.00;;;;2069994;28;20210;-52
2022/12/23 04:37:27;;;;;;;4.50;3.40;;;;;20.60;99374.00;;;;2063139;28;20243;-51
2022/12/23 04:38:28;;;;;;;3.87;3.30;;;;;20.60;99365.00;;;;2054173;28;20247;-52
2022/12/23 04:39:28;;;;;;;3.57;3.17;;;;;20.60;99368.00;;;;2057846;28;20218;-53
2022/12/23 04:40:28;;;;;;;4.03;3.50;;;;;20.60;99372.00;;;;2066294;28;20211;-53
2022/12/23 04:41:29;;;;;;;3.53;3.23;;;;;20.60;99376.00;;;;2064782;28;20211;-52
2022/12/23 04:42:29;;;;;;;4.00;3.50;;;;;20.60;99374.00;;;;2070527;28;20210;-51
2022/12/23 04:43:29;;;;;;;2.90;2.60;;;;;20.60;99367.00;;;;2070876;28;20245;-52
2022/12/23 04:44:30;;;;;;;3.87;3.47;;;;;20.60;99380.00;;;;2071000;28;20228;-53
2022/12/23 04:45:31;;;;;;;4.00;3.53;;;;;20.60;99384.00;;;;2065958;28;20222;-51
2022/12/23 04:46:31;;;;;;;4.45;3.63;;;;;20.60;99376.00;;;;2062635;28;20227;-53
2022/12/23 04:47:31;;;;;;;4.00;3.20;;;;;20.60;99374.00;;;;2063230;28;20675;-51
2022/12/23 04:48:32;;;;;;;3.20;2.90;;;;;20.60;99374.00;;;;2062787;28;20711;-53
2022/12/23 04:49:32;;;;;;;3.60;3.20;;;;;20.60;99374.00;;;;2063083;28;20246;-52
2022/12/23 04:50:32;;;;;;;3.30;3.00;;;;;20.50;99377.00;;;;2063089;28;20227;-53
2022/12/23 04:51:33;;;;;;;3.90;3.50;;;;;20.60;99386.00;;;;2069908;28;20269;-54
2022/12/23 04:52:33;;;;;;;4.40;3.20;;;;;20.60;99375.00;;;;2066301;28;20246;-53
2022/12/23 04:53:35;;;;;;;3.00;2.80;;;;;20.60;99372.00;;;;2067680;28;20309;-53
2022/12/23 04:54:35;;;;;;;3.28;2.70;;;;;20.60;99371.00;;;;2061931;28;20215;-52
2022/12/23 04:55:35;;;;;;;3.33;2.73;;;;;20.60;99384.00;;;;2059242;28;20262;-52
2022/12/23 04:56:36;;;;;;;3.13;2.80;;;;;20.60;99372.00;;;;2062794;28;20221;-52
2022/12/23 04:57:36;;;;;;;3.73;3.13;;;;;20.60;99376.00;;;;2063005;28;20215;-52
2022/12/23 04:58:36;;;;;;;3.00;2.80;;;;;20.60;99380.00;;;;2059430;28;20215;-52
2022/12/23 04:59:37;;;;;;;3.40;2.97;;;;;20.60;99382.00;;;;2061994;28;20246;-54
2022/12/23 05:00:37;;;;;;;3.60;3.03;;;;;20.60;99387.00;;;;2070952;28;20217;-53
2022/12/23 05:01:38;;;;;;;5.10;3.50;;;;;20.60;99383.00;;;;2070884;28;20273;-53
2022/12/23 05:02:38;;;;;;;2.70;2.50;;;;;20.60;99378.00;;;;2069931;28;20229;-52
2022/12/23 05:03:38;;;;;;;3.07;2.53;;;;;20.60;99396.00;;;;2071064;28;20229;-50
2022/12/23 05:04:39;;;;;;;3.60;3.00;;;;;20.60;99387.00;;;;2070749;28;20210;-51
2022/12/23 05:05:43;;;;;;;3.30;2.20;;;;;20.60;99382.00;;;;2070997;28;20232;-52
2022/12/23 05:06:43;;;;;;;2.97;2.50;;;;;20.60;99393.00;;;;2070927;28;20226;-51
2022/12/23 05:07:43;;;;;;;3.50;2.90;;;;;20.60;99390.00;;;;2070870;28;20237;-52
2022/12/23 05:08:44;;;;;;;3.77;2.70;;;;;20.60;99377.00;;;;2070705;28;20214;-53
2022/12/23 05:09:44;;;;;;;2.97;2.63;;;;;20.60;99391.00;;;;2062343;28;20219;-52
2022/12/23 05:10:44;;;;;;;3.73;2.90;;;;;20.60;99391.00;;;;2062867;28;20215;-53
2022/12/23 05:11:45;;;;;;;4.00;2.67;;;;;20.60;99391.00;;;;2062491;28;20214;-52
2022/12/23 05:12:45;;;;;;;3.00;2.70;;;;;20.60;99386.00;;;;2062241;28;20235;-52
2022/12/23 05:13:45;;;;;;;3.50;2.57;;;;;20.50;99394.00;;;;2062718;28;20214;-51
2022/12/23 05:14:46;;;;;;;3.57;2.63;;;;;20.60;99393.00;;;;2062454;28;20211;-53
2022/12/23 05:15:48;;;;;;;3.40;2.63;;;;;20.60;99389.00;;;;2062652;28;20675;-53
2022/12/23 05:16:48;;;;;;;3.95;2.90;;;;;20.50;99390.00;;;;2061951;28;20289;-54
2022/12/23 05:17:48;;;;;;;2.53;2.20;;;;;20.50;99394.00;;;;2062069;28;20691;-52
2022/12/23 05:18:49;;;;;;;2.93;2.67;;;;;20.50;99390.00;;;;2056329;28;20696;-52
2022/12/23 05:19:49;;;;;;;3.40;2.70;;;;;20.60;99389.00;;;;2062477;28;20783;-53
2022/12/23 05:20:50;;;;;;;4.10;2.67;;;;;20.50;99390.00;;;;2055780;28;20715;-51
2022/12/23 05:21:50;;;;;;;3.10;2.70;;;;;20.50;99395.00;;;;2061972;28;20238;-52
2022/12/23 05:22:50;;;;;;;3.60;2.60;;;;;20.50;99394.00;;;;2062562;28;20218;-54
2022/12/23 05:23:51;;;;;;;3.20;2.70;;;;;20.50;99383.00;;;;2062498;28;20698;-51
2022/12/23 05:24:51;;;;;;;2.70;2.50;;;;;20.50;99388.00;;;;2060574;28;20717;-53
2022/12/23 05:25:52;;;;;;;3.37;2.77;;;;;20.50;99355.00;;;;2062446;28;20699;-52
2022/12/23 05:26:52;;;;;;;2.50;2.23;;;;;20.50;99380.00;;;;2062552;28;20704;-53
2022/12/23 05:27:52;;;;;;;3.30;2.93;;;;;20.50;99341.00;;;;2062697;28;20641;-52
2022/12/23 05:28:53;;;;;;;3.20;2.77;;;;;20.50;99373.00;;;;2062455;28;20696;-54
2022/12/23 05:29:54;;;;;;;4.13;3.13;;;;;20.50;99371.00;;;;2065877;28;20256;-52
2022/12/23 05:31:01;;;;;;;3.00;2.50;;;;;20.50;99375.00;;;;2070066;28;20615;-50
2022/12/23 05:32:01;;;;;;;3.13;2.53;;;;;20.50;99374.00;;;;2069570;28;20217;-52
2022/12/23 05:33:01;;;;;;;2.60;2.40;;;;;20.50;99368.00;;;;2070794;28;20309;-53
2022/12/23 05:34:02;;;;;;;2.43;2.20;;;;;20.50;99369.00;;;;2070368;28;20210;-52
2022/12/23 05:35:02;;;;;;;2.87;2.50;;;;;20.50;99385.00;;;;2070760;28;20228;-52
2022/12/23 05:36:03;;;;;;;5.17;2.50;;;;;20.50;99377.00;;;;2069718;28;20233;-51
2022/12/23 05:37:04;;;;;;;3.97;2.50;;;;;20.50;99375.00;;;;2070511;28;20237;-52
2022/12/23 05:38:04;;;;;;;2.73;2.53;;;;;20.50;99380.00;;;;2070584;28;20268;-50
2022/12/23 05:39:05;;;;;;;2.40;2.10;;;;;20.50;99372.00;;;;2067662;28;20202;-52
2022/12/23 05:40:06;;;;;;;2.35;2.08;;;;;20.50;99381.00;;;;2070779;28;20298;-54
2022/12/23 05:41:06;;;;;;;2.70;2.20;;;;;20.50;99376.00;;;;2069053;28;20206;-53
2022/12/23 05:42:07;;;;;;;5.40;2.50;;;;;20.50;99379.00;;;;2059574;28;20549;-51
2022/12/23 05:43:07;;;;;;;2.77;2.20;;;;;20.50;99379.00;;;;2061169;28;20289;-52
2022/12/23 05:44:07;;;;;;;2.70;2.40;;;;;20.50;99383.00;;;;2069456;28;20729;-53
2022/12/23 05:45:08;;;;;;;2.83;2.40;;;;;20.50;99380.00;;;;2070031;28;20654;-53
2022/12/23 05:46:08;;;;;;;2.70;2.23;;;;;20.50;99384.00;;;;2068430;28;20694;-52